sensor_id;sensor_type;location;lat;lon;timestamp;pressure;altitude;pressure_sealevel;temperature;humidity
55755;BME280;41674;52.290;-1.474;2023-04-07T00:01:08;101326.41;;;5.79;81.10
55755;BME280;41674;52.290;-1.474;2023-04-07T00:03:38;101330.54;;;4.88;82.61
55755;BME280;41674;52.290;-1.474;2023-04-07T00:06:07;101330.61;;;5.72;79.38
55755;BME280;41674;52.290;-1.474;2023-04-07T00:11:06;101331.14;;;4.97;82.13
55755;BME280;41674;52.290;-1.474;2023-04-07T00:13:36;101337.65;;;5.62;79.65
55755;BME280;41674;52.290;-1.474;2023-04-07T00:16:06;101339.17;;;5.01;81.85
55755;BME280;41674;52.290;-1.474;2023-04-07T00:18:35;101342.57;;;4.42;84.68
55755;BME280;41674;52.290;-1.474;2023-04-07T00:21:05;101337.90;;;5.36;81.73
55755;BME280;41674;52.290;-1.474;2023-04-07T00:23:35;101338.75;;;5.15;81.20
55755;BME280;41674;52.290;-1.474;2023-04-07T00:26:05;101340.72;;;5.09;80.69
55755;BME280;41674;52.290;-1.474;2023-04-07T00:28:34;101344.83;;;5.77;78.62
55755;BME280;41674;52.290;-1.474;2023-04-07T00:31:04;101348.42;;;6.08;77.66
55755;BME280;41674;52.290;-1.474;2023-04-07T00:33:34;101343.80;;;6.54;76.18
55755;BME280;41674;52.290;-1.474;2023-04-07T00:36:04;101347.76;;;5.90;77.29
55755;BME280;41674;52.290;-1.474;2023-04-07T00:38:33;101355.99;;;6.17;76.34
55755;BME280;41674;52.290;-1.474;2023-04-07T00:41:03;101357.47;;;6.49;75.10
55755;BME280;41674;52.290;-1.474;2023-04-07T00:43:33;101356.31;;;6.03;74.96
55755;BME280;41674;52.290;-1.474;2023-04-07T00:46:02;101358.19;;;5.81;77.32
55755;BME280;41674;52.290;-1.474;2023-04-07T00:48:32;101358.95;;;5.57;77.80
55755;BME280;41674;52.290;-1.474;2023-04-07T00:51:01;101360.35;;;5.33;78.41
55755;BME280;41674;52.290;-1.474;2023-04-07T00:53:31;101364.16;;;5.59;78.03
55755;BME280;41674;52.290;-1.474;2023-04-07T00:56:01;101367.53;;;5.82;76.31
55755;BME280;41674;52.290;-1.474;2023-04-07T00:58:30;101365.76;;;5.59;77.59
55755;BME280;41674;52.290;-1.474;2023-04-07T01:01:06;101363.65;;;5.25;77.25
55755;BME280;41674;52.290;-1.474;2023-04-07T01:03:32;101361.45;;;5.25;78.27
55755;BME280;41674;52.290;-1.474;2023-04-07T01:06:01;101359.63;;;5.21;77.67
55755;BME280;41674;52.290;-1.474;2023-04-07T01:08:34;101359.28;;;4.96;79.18
55755;BME280;41674;52.290;-1.474;2023-04-07T01:11:04;101358.63;;;5.42;77.43
55755;BME280;41674;52.290;-1.474;2023-04-07T01:13:33;101361.56;;;5.36;77.71
55755;BME280;41674;52.290;-1.474;2023-04-07T01:16:00;101363.11;;;5.66;77.28
55755;BME280;41674;52.290;-1.474;2023-04-07T01:18:30;101357.69;;;5.52;79.79
55755;BME280;41674;52.290;-1.474;2023-04-07T01:21:02;101358.92;;;4.20;84.13
55755;BME280;41674;52.290;-1.474;2023-04-07T01:23:41;101361.38;;;3.41;90.63
55755;BME280;41674;52.290;-1.474;2023-04-07T01:26:08;101361.47;;;3.27;91.93
55755;BME280;41674;52.290;-1.474;2023-04-07T01:30:57;101365.08;;;3.13;95.70
55755;BME280;41674;52.290;-1.474;2023-04-07T01:33:27;101367.26;;;3.43;95.38
55755;BME280;41674;52.290;-1.474;2023-04-07T01:35:57;101371.98;;;3.15;95.19
55755;BME280;41674;52.290;-1.474;2023-04-07T01:38:25;101371.86;;;2.47;97.04
55755;BME280;41674;52.290;-1.474;2023-04-07T01:40:55;101373.94;;;3.08;96.90
55755;BME280;41674;52.290;-1.474;2023-04-07T01:43:25;101374.71;;;3.21;97.00
55755;BME280;41674;52.290;-1.474;2023-04-07T01:45:55;101379.72;;;2.47;99.40
55755;BME280;41674;52.290;-1.474;2023-04-07T01:48:24;101373.27;;;2.91;99.36
55755;BME280;41674;52.290;-1.474;2023-04-07T01:50:54;101374.88;;;2.63;98.57
55755;BME280;41674;52.290;-1.474;2023-04-07T01:53:23;101375.21;;;3.06;97.24
55755;BME280;41674;52.290;-1.474;2023-04-07T01:55:53;101369.03;;;2.77;97.82
55755;BME280;41674;52.290;-1.474;2023-04-07T01:58:23;101371.33;;;3.46;94.32
55755;BME280;41674;52.290;-1.474;2023-04-07T02:00:52;101372.90;;;3.29;96.31
55755;BME280;41674;52.290;-1.474;2023-04-07T02:03:29;101371.60;;;3.70;94.95
55755;BME280;41674;52.290;-1.474;2023-04-07T02:05:54;101370.85;;;2.83;96.44
55755;BME280;41674;52.290;-1.474;2023-04-07T02:08:23;101372.93;;;4.03;91.72
55755;BME280;41674;52.290;-1.474;2023-04-07T02:10:52;101362.86;;;4.97;86.61
55755;BME280;41674;52.290;-1.474;2023-04-07T02:13:21;101365.23;;;4.57;86.85
55755;BME280;41674;52.290;-1.474;2023-04-07T02:15:51;101361.71;;;5.19;83.62
55755;BME280;41674;52.290;-1.474;2023-04-07T02:18:25;101362.49;;;4.60;85.52
55755;BME280;41674;52.290;-1.474;2023-04-07T02:20:51;101354.48;;;5.12;85.19
55755;BME280;41674;52.290;-1.474;2023-04-07T02:23:20;101356.05;;;6.00;81.62
55755;BME280;41674;52.290;-1.474;2023-04-07T02:25:49;101358.35;;;6.41;79.11
55755;BME280;41674;52.290;-1.474;2023-04-07T02:28:19;101354.55;;;6.36;77.76
55755;BME280;41674;52.290;-1.474;2023-04-07T02:30:49;101354.90;;;6.63;76.53
55755;BME280;41674;52.290;-1.474;2023-04-07T02:33:18;101356.83;;;6.39;75.87
55755;BME280;41674;52.290;-1.474;2023-04-07T02:35:48;101351.99;;;6.83;74.45
55755;BME280;41674;52.290;-1.474;2023-04-07T02:38:17;101352.11;;;6.95;73.12
55755;BME280;41674;52.290;-1.474;2023-04-07T02:40:47;101353.06;;;6.87;72.89
55755;BME280;41674;52.290;-1.474;2023-04-07T02:43:18;101354.27;;;6.66;72.69
55755;BME280;41674;52.290;-1.474;2023-04-07T02:45:46;101355.73;;;6.60;72.34
55755;BME280;41674;52.290;-1.474;2023-04-07T02:48:16;101360.38;;;6.91;72.17
55755;BME280;41674;52.290;-1.474;2023-04-07T02:50:46;101363.26;;;6.65;72.18
55755;BME280;41674;52.290;-1.474;2023-04-07T02:53:16;101359.98;;;7.04;71.96
55755;BME280;41674;52.290;-1.474;2023-04-07T02:55:45;101363.65;;;6.83;71.94
55755;BME280;41674;52.290;-1.474;2023-04-07T02:58:15;101371.19;;;6.66;71.97
55755;BME280;41674;52.290;-1.474;2023-04-07T03:00:47;101371.66;;;6.37;72.84
55755;BME280;41674;52.290;-1.474;2023-04-07T03:03:14;101368.67;;;6.72;71.47
55755;BME280;41674;52.290;-1.474;2023-04-07T03:05:44;101369.07;;;6.40;71.00
55755;BME280;41674;52.290;-1.474;2023-04-07T03:08:14;101363.14;;;7.12;70.72
55755;BME280;41674;52.290;-1.474;2023-04-07T03:10:43;101363.93;;;6.81;70.50
55755;BME280;41674;52.290;-1.474;2023-04-07T03:13:13;101365.96;;;4.93;76.07
55755;BME280;41674;52.290;-1.474;2023-04-07T03:15:43;101367.38;;;5.80;74.80
55755;BME280;41674;52.290;-1.474;2023-04-07T03:18:12;101367.83;;;6.22;73.33
55755;BME280;41674;52.290;-1.474;2023-04-07T03:20:42;101363.16;;;5.37;75.61
55755;BME280;41674;52.290;-1.474;2023-04-07T03:23:12;101366.55;;;6.20;75.11
55755;BME280;41674;52.290;-1.474;2023-04-07T03:25:41;101363.46;;;5.63;74.76
55755;BME280;41674;52.290;-1.474;2023-04-07T03:28:11;101368.87;;;2.53;88.48
55755;BME280;41674;52.290;-1.474;2023-04-07T03:30:41;101365.86;;;2.36;94.76
55755;BME280;41674;52.290;-1.474;2023-04-07T03:33:10;101364.54;;;4.46;87.77
55755;BME280;41674;52.290;-1.474;2023-04-07T03:35:41;101365.23;;;4.66;84.07
55755;BME280;41674;52.290;-1.474;2023-04-07T03:38:10;101361.19;;;4.51;84.26
55755;BME280;41674;52.290;-1.474;2023-04-07T03:40:40;101360.98;;;5.73;79.54
55755;BME280;41674;52.290;-1.474;2023-04-07T03:43:09;101365.15;;;5.41;78.28
55755;BME280;41674;52.290;-1.474;2023-04-07T03:45:39;101369.64;;;5.42;77.94
55755;BME280;41674;52.290;-1.474;2023-04-07T03:48:09;101375.04;;;5.32;77.07
55755;BME280;41674;52.290;-1.474;2023-04-07T03:50:39;101372.65;;;5.11;77.36
55755;BME280;41674;52.290;-1.474;2023-04-07T03:53:08;101371.12;;;5.84;77.97
55755;BME280;41674;52.290;-1.474;2023-04-07T03:55:38;101372.98;;;4.29;82.71
55755;BME280;41674;52.290;-1.474;2023-04-07T03:58:07;101371.88;;;4.59;84.47
55755;BME280;41674;52.290;-1.474;2023-04-07T04:00:37;101374.44;;;4.31;86.58
55755;BME280;41674;52.290;-1.474;2023-04-07T04:03:07;101373.19;;;5.10;81.55
55755;BME280;41674;52.290;-1.474;2023-04-07T04:05:36;101374.16;;;4.97;81.33
55755;BME280;41674;52.290;-1.474;2023-04-07T04:08:06;101376.18;;;5.55;79.66
55755;BME280;41674;52.290;-1.474;2023-04-07T04:10:36;101383.60;;;4.60;82.08
55755;BME280;41674;52.290;-1.474;2023-04-07T04:13:05;101382.79;;;5.24;80.09
55755;BME280;41674;52.290;-1.474;2023-04-07T04:15:35;101385.11;;;5.52;78.40
55755;BME280;41674;52.290;-1.474;2023-04-07T04:18:05;101387.55;;;4.59;80.24
55755;BME280;41674;52.290;-1.474;2023-04-07T04:20:34;101387.75;;;5.09;78.08
55755;BME280;41674;52.290;-1.474;2023-04-07T04:23:04;101389.28;;;5.40;78.12
55755;BME280;41674;52.290;-1.474;2023-04-07T04:25:34;101391.56;;;5.98;76.30
55755;BME280;41674;52.290;-1.474;2023-04-07T04:28:03;101391.71;;;5.46;75.66
55755;BME280;41674;52.290;-1.474;2023-04-07T04:30:33;101398.10;;;5.50;74.47
55755;BME280;41674;52.290;-1.474;2023-04-07T04:33:03;101407.09;;;5.63;73.60
55755;BME280;41674;52.290;-1.474;2023-04-07T04:35:32;101414.42;;;5.68;73.32
55755;BME280;41674;52.290;-1.474;2023-04-07T04:38:02;101412.38;;;5.02;73.90
55755;BME280;41674;52.290;-1.474;2023-04-07T04:40:32;101415.51;;;5.52;73.65
55755;BME280;41674;52.290;-1.474;2023-04-07T04:43:07;101417.93;;;5.41;73.30
55755;BME280;41674;52.290;-1.474;2023-04-07T04:45:31;101425.81;;;5.50;73.53
55755;BME280;41674;52.290;-1.474;2023-04-07T04:48:01;101426.93;;;5.72;73.73
55755;BME280;41674;52.290;-1.474;2023-04-07T04:50:30;101432.70;;;5.14;76.16
55755;BME280;41674;52.290;-1.474;2023-04-07T04:53:00;101433.71;;;4.86;78.54
55755;BME280;41674;52.290;-1.474;2023-04-07T04:55:30;101430.34;;;5.24;78.82
55755;BME280;41674;52.290;-1.474;2023-04-07T04:58:00;101427.53;;;5.41;76.90
55755;BME280;41674;52.290;-1.474;2023-04-07T05:00:29;101430.46;;;5.50;76.49
55755;BME280;41674;52.290;-1.474;2023-04-07T05:02:59;101438.01;;;5.05;77.55
55755;BME280;41674;52.290;-1.474;2023-04-07T05:05:29;101435.86;;;5.54;76.25
55755;BME280;41674;52.290;-1.474;2023-04-07T05:07:59;101441.44;;;5.33;75.23
55755;BME280;41674;52.290;-1.474;2023-04-07T05:10:28;101446.76;;;5.33;74.18
55755;BME280;41674;52.290;-1.474;2023-04-07T05:12:58;101453.19;;;3.94;76.17
55755;BME280;41674;52.290;-1.474;2023-04-07T05:15:28;101449.98;;;4.83;75.37
55755;BME280;41674;52.290;-1.474;2023-04-07T05:17:57;101448.92;;;4.87;74.34
55755;BME280;41674;52.290;-1.474;2023-04-07T05:20:27;101448.39;;;4.87;74.75
55755;BME280;41674;52.290;-1.474;2023-04-07T05:22:57;101451.96;;;4.98;74.03
55755;BME280;41674;52.290;-1.474;2023-04-07T05:25:26;101458.72;;;4.66;74.49
55755;BME280;41674;52.290;-1.474;2023-04-07T05:27:57;101460.48;;;4.33;74.66
55755;BME280;41674;52.290;-1.474;2023-04-07T05:30:26;101455.39;;;4.88;72.54
55755;BME280;41674;52.290;-1.474;2023-04-07T05:32:55;101456.14;;;4.69;73.05
55755;BME280;41674;52.290;-1.474;2023-04-07T05:35:25;101461.74;;;4.81;73.27
55755;BME280;41674;52.290;-1.474;2023-04-07T05:37:55;101464.29;;;4.74;71.82
55755;BME280;41674;52.290;-1.474;2023-04-07T05:40:30;101464.23;;;4.61;72.38
55755;BME280;41674;52.290;-1.474;2023-04-07T05:42:54;101464.43;;;4.44;72.16
55755;BME280;41674;52.290;-1.474;2023-04-07T05:45:24;101467.91;;;3.98;74.09
55755;BME280;41674;52.290;-1.474;2023-04-07T05:47:54;101473.29;;;4.53;74.15
55755;BME280;41674;52.290;-1.474;2023-04-07T05:50:24;101473.08;;;4.31;73.25
55755;BME280;41674;52.290;-1.474;2023-04-07T05:52:53;101471.99;;;4.16;73.64
55755;BME280;41674;52.290;-1.474;2023-04-07T05:55:23;101472.53;;;4.51;72.66
55755;BME280;41674;52.290;-1.474;2023-04-07T05:57:53;101477.13;;;4.56;72.73
55755;BME280;41674;52.290;-1.474;2023-04-07T06:00:23;101476.92;;;3.85;72.92
55755;BME280;41674;52.290;-1.474;2023-04-07T06:02:52;101482.39;;;4.11;73.60
55755;BME280;41674;52.290;-1.474;2023-04-07T06:05:22;101485.77;;;4.77;72.74
55755;BME280;41674;52.290;-1.474;2023-04-07T06:07:52;101489.05;;;4.71;73.84
55755;BME280;41674;52.290;-1.474;2023-04-07T06:10:21;101492.96;;;4.39;73.40
55755;BME280;41674;52.290;-1.474;2023-04-07T06:12:51;101495.17;;;4.57;73.75
55755;BME280;41674;52.290;-1.474;2023-04-07T06:15:21;101498.87;;;4.12;74.69
55755;BME280;41674;52.290;-1.474;2023-04-07T06:17:51;101501.95;;;3.84;74.50
55755;BME280;41674;52.290;-1.474;2023-04-07T06:20:20;101503.44;;;4.75;73.95
55755;BME280;41674;52.290;-1.474;2023-04-07T06:22:50;101507.42;;;4.32;73.80
55755;BME280;41674;52.290;-1.474;2023-04-07T06:25:20;101511.46;;;4.47;73.85
55755;BME280;41674;52.290;-1.474;2023-04-07T06:27:49;101514.12;;;4.82;73.57
55755;BME280;41674;52.290;-1.474;2023-04-07T06:30:19;101517.42;;;4.99;72.88
55755;BME280;41674;52.290;-1.474;2023-04-07T06:32:49;101518.96;;;4.65;74.40
55755;BME280;41674;52.290;-1.474;2023-04-07T06:35:19;101520.39;;;4.50;74.52
55755;BME280;41674;52.290;-1.474;2023-04-07T06:37:48;101522.54;;;4.45;76.16
55755;BME280;41674;52.290;-1.474;2023-04-07T06:40:18;101525.56;;;4.60;75.37
55755;BME280;41674;52.290;-1.474;2023-04-07T06:42:48;101527.79;;;4.69;75.94
55755;BME280;41674;52.290;-1.474;2023-04-07T06:45:17;101527.27;;;4.81;75.98
55755;BME280;41674;52.290;-1.474;2023-04-07T06:47:47;101530.13;;;5.05;75.86
55755;BME280;41674;52.290;-1.474;2023-04-07T06:50:17;101532.08;;;3.99;81.98
55755;BME280;41674;52.290;-1.474;2023-04-07T06:52:47;101536.62;;;3.32;87.02
55755;BME280;41674;52.290;-1.474;2023-04-07T06:55:16;101528.92;;;4.01;84.16
55755;BME280;41674;52.290;-1.474;2023-04-07T06:57:46;101530.73;;;5.16;81.20
55755;BME280;41674;52.290;-1.474;2023-04-07T07:00:16;101532.02;;;4.64;81.61
55755;BME280;41674;52.290;-1.474;2023-04-07T07:02:45;101536.67;;;4.76;82.41
55755;BME280;41674;52.290;-1.474;2023-04-07T07:05:15;101539.37;;;4.04;84.81
55755;BME280;41674;52.290;-1.474;2023-04-07T07:07:45;101546.17;;;4.11;86.25
55755;BME280;41674;52.290;-1.474;2023-04-07T07:10:14;101546.06;;;4.26;86.30
55755;BME280;41674;52.290;-1.474;2023-04-07T07:12:44;101549.12;;;4.40;86.21
55755;BME280;41674;52.290;-1.474;2023-04-07T07:15:14;101552.81;;;4.24;86.14
55755;BME280;41674;52.290;-1.474;2023-04-07T07:17:44;101558.41;;;4.40;84.90
55755;BME280;41674;52.290;-1.474;2023-04-07T07:20:14;101557.27;;;5.18;83.60
55755;BME280;41674;52.290;-1.474;2023-04-07T07:22:43;101557.01;;;5.66;82.47
55755;BME280;41674;52.290;-1.474;2023-04-07T07:25:13;101558.42;;;5.98;81.27
55755;BME280;41674;52.290;-1.474;2023-04-07T07:27:43;101566.25;;;5.18;80.90
55755;BME280;41674;52.290;-1.474;2023-04-07T07:30:13;101564.77;;;5.80;80.98
55755;BME280;41674;52.290;-1.474;2023-04-07T07:32:42;101567.05;;;5.97;80.35
55755;BME280;41674;52.290;-1.474;2023-04-07T07:35:12;101565.88;;;5.67;82.07
55755;BME280;41674;52.290;-1.474;2023-04-07T07:37:41;101569.45;;;5.52;83.75
55755;BME280;41674;52.290;-1.474;2023-04-07T07:40:11;101575.11;;;5.08;82.72
55755;BME280;41674;52.290;-1.474;2023-04-07T07:42:41;101568.93;;;5.83;81.84
55755;BME280;41674;52.290;-1.474;2023-04-07T07:45:10;101573.63;;;5.84;83.40
55755;BME280;41674;52.290;-1.474;2023-04-07T07:47:40;101570.80;;;5.54;83.91
55755;BME280;41674;52.290;-1.474;2023-04-07T07:50:10;101573.60;;;5.61;86.46
55755;BME280;41674;52.290;-1.474;2023-04-07T07:52:40;101575.09;;;4.79;87.35
55755;BME280;41674;52.290;-1.474;2023-04-07T07:55:10;101577.59;;;4.91;89.23
55755;BME280;41674;52.290;-1.474;2023-04-07T07:57:38;101578.00;;;4.58;90.17
55755;BME280;41674;52.290;-1.474;2023-04-07T08:00:09;101570.91;;;5.81;86.06
55755;BME280;41674;52.290;-1.474;2023-04-07T08:02:38;101576.07;;;5.35;87.38
55755;BME280;41674;52.290;-1.474;2023-04-07T08:05:08;101576.82;;;5.02;88.40
55755;BME280;41674;52.290;-1.474;2023-04-07T08:07:37;101576.47;;;4.88;89.52
55755;BME280;41674;52.290;-1.474;2023-04-07T08:10:12;101573.55;;;5.21;88.37
55755;BME280;41674;52.290;-1.474;2023-04-07T08:12:36;101572.90;;;5.42;87.98
55755;BME280;41674;52.290;-1.474;2023-04-07T08:15:07;101568.42;;;5.80;86.93
55755;BME280;41674;52.290;-1.474;2023-04-07T08:17:36;101570.27;;;5.70;88.66
55755;BME280;41674;52.290;-1.474;2023-04-07T08:20:07;101569.71;;;5.91;86.56
55755;BME280;41674;52.290;-1.474;2023-04-07T08:22:35;101569.62;;;6.37;84.95
55755;BME280;41674;52.290;-1.474;2023-04-07T08:25:05;101570.86;;;6.49;84.40
55755;BME280;41674;52.290;-1.474;2023-04-07T08:27:34;101572.41;;;5.79;85.57
55755;BME280;41674;52.290;-1.474;2023-04-07T08:30:06;101574.78;;;5.72;89.47
55755;BME280;41674;52.290;-1.474;2023-04-07T08:32:35;101571.56;;;6.38;84.70
55755;BME280;41674;52.290;-1.474;2023-04-07T08:35:04;101571.78;;;6.72;85.20
55755;BME280;41674;52.290;-1.474;2023-04-07T08:37:33;101573.62;;;7.07;83.83
55755;BME280;41674;52.290;-1.474;2023-04-07T08:40:03;101581.44;;;7.41;81.19
55755;BME280;41674;52.290;-1.474;2023-04-07T08:42:33;101580.38;;;7.48;80.09
55755;BME280;41674;52.290;-1.474;2023-04-07T08:45:04;101576.05;;;8.90;74.89
55755;BME280;41674;52.290;-1.474;2023-04-07T08:47:32;101580.32;;;8.22;76.09
55755;BME280;41674;52.290;-1.474;2023-04-07T08:50:03;101578.41;;;8.16;74.49
55755;BME280;41674;52.290;-1.474;2023-04-07T08:52:33;101579.23;;;8.43;73.85
55755;BME280;41674;52.290;-1.474;2023-04-07T08:55:00;101574.27;;;8.73;74.77
55755;BME280;41674;52.290;-1.474;2023-04-07T08:57:31;101572.64;;;9.65;71.08
55755;BME280;41674;52.290;-1.474;2023-04-07T09:00:00;101572.59;;;10.40;66.13
55755;BME280;41674;52.290;-1.474;2023-04-07T09:02:31;101574.70;;;9.30;68.12
55755;BME280;41674;52.290;-1.474;2023-04-07T09:04:59;101575.37;;;9.42;67.07
55755;BME280;41674;52.290;-1.474;2023-04-07T09:07:28;101573.24;;;8.59;69.25
55755;BME280;41674;52.290;-1.474;2023-04-07T09:09:58;101572.67;;;8.65;71.76
55755;BME280;41674;52.290;-1.474;2023-04-07T09:12:28;101571.44;;;9.06;70.89
55755;BME280;41674;52.290;-1.474;2023-04-07T09:14:57;101569.07;;;9.66;66.44
55755;BME280;41674;52.290;-1.474;2023-04-07T09:17:27;101570.18;;;9.66;67.33
55755;BME280;41674;52.290;-1.474;2023-04-07T09:19:57;101572.52;;;9.41;67.07
55755;BME280;41674;52.290;-1.474;2023-04-07T09:22:36;101572.82;;;9.77;63.67
55755;BME280;41674;52.290;-1.474;2023-04-07T09:27:25;101563.94;;;10.10;62.62
55755;BME280;41674;52.290;-1.474;2023-04-07T09:32:33;101562.46;;;10.80;61.88
55755;BME280;41674;52.290;-1.474;2023-04-07T09:34:58;101569.36;;;9.24;63.98
55755;BME280;41674;52.290;-1.474;2023-04-07T09:37:23;101569.40;;;9.59;63.49
55755;BME280;41674;52.290;-1.474;2023-04-07T09:39:53;101567.27;;;9.81;62.07
55755;BME280;41674;52.290;-1.474;2023-04-07T09:42:23;101562.25;;;11.07;59.18
55755;BME280;41674;52.290;-1.474;2023-04-07T09:44:52;101562.15;;;10.71;58.94
55755;BME280;41674;52.290;-1.474;2023-04-07T09:47:25;101563.08;;;10.10;62.86
55755;BME280;41674;52.290;-1.474;2023-04-07T09:49:53;101564.16;;;9.99;62.74
55755;BME280;41674;52.290;-1.474;2023-04-07T09:52:24;101563.66;;;11.03;60.74
55755;BME280;41674;52.290;-1.474;2023-04-07T09:54:52;101561.59;;;10.79;61.37
55755;BME280;41674;52.290;-1.474;2023-04-07T09:57:20;101557.40;;;10.92;59.22
55755;BME280;41674;52.290;-1.474;2023-04-07T09:59:51;101558.38;;;10.87;58.16
55755;BME280;41674;52.290;-1.474;2023-04-07T10:02:20;101558.20;;;10.91;59.94
55755;BME280;41674;52.290;-1.474;2023-04-07T10:04:49;101559.16;;;11.17;58.05
55755;BME280;41674;52.290;-1.474;2023-04-07T10:07:19;101564.30;;;9.86;59.91
55755;BME280;41674;52.290;-1.474;2023-04-07T10:09:48;101562.15;;;11.22;58.51
55755;BME280;41674;52.290;-1.474;2023-04-07T10:12:18;101561.78;;;11.62;53.97
55755;BME280;41674;52.290;-1.474;2023-04-07T10:14:53;101557.22;;;10.64;56.20
55755;BME280;41674;52.290;-1.474;2023-04-07T10:17:18;101559.95;;;9.83;62.14
55755;BME280;41674;52.290;-1.474;2023-04-07T10:19:48;101559.45;;;10.33;58.62
55755;BME280;41674;52.290;-1.474;2023-04-07T10:22:17;101558.19;;;10.17;59.42
55755;BME280;41674;52.290;-1.474;2023-04-07T10:24:52;101565.21;;;9.93;58.94
55755;BME280;41674;52.290;-1.474;2023-04-07T10:27:20;101563.35;;;11.56;57.98
55755;BME280;41674;52.290;-1.474;2023-04-07T10:29:48;101560.23;;;11.75;57.27
55755;BME280;41674;52.290;-1.474;2023-04-07T10:32:15;101558.38;;;11.45;56.84
55755;BME280;41674;52.290;-1.474;2023-04-07T10:34:55;101555.51;;;10.48;57.29
55755;BME280;41674;52.290;-1.474;2023-04-07T10:37:14;101558.47;;;10.65;57.60
55755;BME280;41674;52.290;-1.474;2023-04-07T10:39:43;101557.56;;;11.16;54.63
55755;BME280;41674;52.290;-1.474;2023-04-07T10:44:45;101561.68;;;11.64;57.04
55755;BME280;41674;52.290;-1.474;2023-04-07T10:47:12;101557.76;;;12.05;54.71
55755;BME280;41674;52.290;-1.474;2023-04-07T10:52:21;101548.08;;;12.83;51.41
55755;BME280;41674;52.290;-1.474;2023-04-07T10:54:41;101552.35;;;11.65;53.77
55755;BME280;41674;52.290;-1.474;2023-04-07T10:57:12;101544.47;;;12.41;53.79
55755;BME280;41674;52.290;-1.474;2023-04-07T11:00:13;101545.86;;;12.32;50.10
55755;BME280;41674;52.290;-1.474;2023-04-07T11:04:41;101553.70;;;11.85;51.18
55755;BME280;41674;52.290;-1.474;2023-04-07T11:07:09;101553.48;;;11.89;49.43
55755;BME280;41674;52.290;-1.474;2023-04-07T11:09:39;101547.75;;;12.56;47.94
55755;BME280;41674;52.290;-1.474;2023-04-07T11:12:08;101555.41;;;11.90;51.75
55755;BME280;41674;52.290;-1.474;2023-04-07T11:14:37;101549.84;;;11.89;50.94
55755;BME280;41674;52.290;-1.474;2023-04-07T11:17:13;101544.74;;;12.35;48.50
55755;BME280;41674;52.290;-1.474;2023-04-07T11:22:15;101542.37;;;12.23;49.54
55755;BME280;41674;52.290;-1.474;2023-04-07T11:24:36;101543.45;;;12.01;50.59
55755;BME280;41674;52.290;-1.474;2023-04-07T11:27:08;101545.64;;;10.50;49.79
55755;BME280;41674;52.290;-1.474;2023-04-07T11:29:35;101547.06;;;11.62;49.99
55755;BME280;41674;52.290;-1.474;2023-04-07T11:32:05;101544.67;;;11.20;49.27
55755;BME280;41674;52.290;-1.474;2023-04-07T11:34:35;101536.00;;;12.13;49.33
55755;BME280;41674;52.290;-1.474;2023-04-07T11:39:33;101537.52;;;12.38;50.07
55755;BME280;41674;52.290;-1.474;2023-04-07T11:42:03;101538.77;;;12.65;48.44
55755;BME280;41674;52.290;-1.474;2023-04-07T11:44:32;101539.03;;;12.06;44.93
55755;BME280;41674;52.290;-1.474;2023-04-07T11:47:02;101536.83;;;13.10;43.76
55755;BME280;41674;52.290;-1.474;2023-04-07T11:49:31;101533.89;;;12.85;47.05
55755;BME280;41674;52.290;-1.474;2023-04-07T11:52:02;101534.20;;;13.22;45.13
55755;BME280;41674;52.290;-1.474;2023-04-07T11:54:39;101530.94;;;13.45;45.52
55755;BME280;41674;52.290;-1.474;2023-04-07T11:57:00;101532.16;;;12.98;45.53
55755;BME280;41674;52.290;-1.474;2023-04-07T11:59:29;101526.09;;;14.03;44.29
55755;BME280;41674;52.290;-1.474;2023-04-07T12:01:59;101526.04;;;15.27;39.04
55755;BME280;41674;52.290;-1.474;2023-04-07T12:04:30;101524.70;;;15.99;38.32
55755;BME280;41674;52.290;-1.474;2023-04-07T12:07:08;101531.39;;;15.24;39.11
55755;BME280;41674;52.290;-1.474;2023-04-07T12:09:29;101524.24;;;14.80;38.82
55755;BME280;41674;52.290;-1.474;2023-04-07T12:11:58;101526.78;;;14.89;39.59
55755;BME280;41674;52.290;-1.474;2023-04-07T12:14:27;101525.43;;;15.74;40.27
55755;BME280;41674;52.290;-1.474;2023-04-07T12:16:56;101528.19;;;14.27;36.40
55755;BME280;41674;52.290;-1.474;2023-04-07T12:19:27;101529.80;;;15.17;34.30
55755;BME280;41674;52.290;-1.474;2023-04-07T12:21:56;101529.82;;;14.33;37.81
55755;BME280;41674;52.290;-1.474;2023-04-07T12:24:25;101530.69;;;14.81;37.87
55755;BME280;41674;52.290;-1.474;2023-04-07T12:26:54;101530.57;;;15.36;36.79
55755;BME280;41674;52.290;-1.474;2023-04-07T12:29:24;101527.73;;;14.61;37.65
55755;BME280;41674;52.290;-1.474;2023-04-07T12:31:53;101528.77;;;15.84;33.83
55755;BME280;41674;52.290;-1.474;2023-04-07T12:34:23;101519.27;;;17.12;31.53
55755;BME280;41674;52.290;-1.474;2023-04-07T12:36:52;101521.27;;;16.29;32.87
55755;BME280;41674;52.290;-1.474;2023-04-07T12:39:23;101519.40;;;17.91;32.20
55755;BME280;41674;52.290;-1.474;2023-04-07T12:41:51;101525.31;;;16.58;35.92
55755;BME280;41674;52.290;-1.474;2023-04-07T12:44:21;101522.50;;;16.47;36.87
55755;BME280;41674;52.290;-1.474;2023-04-07T12:46:50;101529.78;;;15.99;33.30
55755;BME280;41674;52.290;-1.474;2023-04-07T12:49:20;101525.61;;;16.40;32.72
55755;BME280;41674;52.290;-1.474;2023-04-07T12:51:50;101517.28;;;17.34;31.53
55755;BME280;41674;52.290;-1.474;2023-04-07T12:54:19;101516.66;;;17.75;32.57
55755;BME280;41674;52.290;-1.474;2023-04-07T12:56:48;101515.27;;;18.45;33.34
55755;BME280;41674;52.290;-1.474;2023-04-07T12:59:18;101509.12;;;18.97;30.13
55755;BME280;41674;52.290;-1.474;2023-04-07T13:01:48;101509.33;;;19.08;31.13
55755;BME280;41674;52.290;-1.474;2023-04-07T13:04:17;101510.89;;;17.95;28.61
55755;BME280;41674;52.290;-1.474;2023-04-07T13:06:47;101505.70;;;19.44;27.97
55755;BME280;41674;52.290;-1.474;2023-04-07T13:09:16;101507.25;;;18.93;30.28
55755;BME280;41674;52.290;-1.474;2023-04-07T13:11:46;101503.86;;;19.46;29.16
55755;BME280;41674;52.290;-1.474;2023-04-07T13:14:15;101502.38;;;20.44;25.70
55755;BME280;41674;52.290;-1.474;2023-04-07T13:16:46;101505.68;;;19.77;28.97
55755;BME280;41674;52.290;-1.474;2023-04-07T13:19:14;101507.82;;;19.44;31.99
55755;BME280;41674;52.290;-1.474;2023-04-07T13:21:44;101511.57;;;18.94;30.31